createdAt,value
2023-04-15T00:00:53.945Z,96986.78
2023-04-15T00:02:00.382Z,96986.47
2023-04-15T00:03:04.527Z,96984.75
2023-04-15T00:04:07.727Z,96986.47
2023-04-15T00:05:11.206Z,96995.06
2023-04-15T00:06:14.790Z,96989.38
2023-04-15T00:07:18.235Z,96989.78
2023-04-15T00:08:21.195Z,96992.09
2023-04-15T00:09:24.429Z,96990.22
2023-04-15T00:10:27.850Z,96990.63
2023-04-15T00:11:30.856Z,96989.34
2023-04-15T00:12:34.001Z,96991.34
2023-04-15T00:13:37.134Z,96997.25
2023-04-15T00:14:40.339Z,96985.34
2023-04-15T00:15:43.493Z,96985.06
2023-04-15T00:16:46.768Z,96986.78
2023-04-15T00:17:52.360Z,96987.78
2023-04-15T00:18:55.340Z,96993.94
2023-04-15T00:20:00.386Z,96986.91
2023-04-15T00:21:05.328Z,96997.50
2023-04-15T00:22:08.496Z,97004.09
2023-04-15T00:23:12.099Z,96992.91
2023-04-15T00:24:15.264Z,96993.09
2023-04-15T00:25:18.358Z,96991.22
2023-04-15T00:26:21.373Z,96992.91
2023-04-15T00:27:24.535Z,96997.63
2023-04-15T00:28:28.272Z,96988.34
2023-04-15T00:29:32.283Z,96997.06
2023-04-15T00:30:35.798Z,96990.66
2023-04-15T00:31:38.885Z,96989.91
2023-04-15T00:32:42.619Z,96986.88
2023-04-15T00:33:45.805Z,96993.34
2023-04-15T00:34:50.344Z,97008.94
2023-04-15T00:35:53.950Z,96995.50
2023-04-15T00:36:57.017Z,96997.22
2023-04-15T00:38:00.183Z,96992.34
2023-04-15T00:39:03.556Z,96993.66
2023-04-15T00:40:08.158Z,96991.91
2023-04-15T00:41:11.751Z,96993.47
2023-04-15T00:42:15.507Z,96992.91
2023-04-15T00:43:18.832Z,96985.75
2023-04-15T00:44:22.015Z,96983.91
2023-04-15T00:45:26.000Z,96978.19
2023-04-15T00:46:31.479Z,96978.75
2023-04-15T00:47:35.838Z,96981.19
2023-04-15T00:48:46.176Z,96982.19
2023-04-15T00:49:49.182Z,96981.47
2023-04-15T00:50:52.240Z,96977.16
2023-04-15T00:51:55.231Z,96976.88
2023-04-15T00:52:58.227Z,96991.22
2023-04-15T00:54:01.664Z,96979.75
2023-04-15T00:55:05.685Z,96986.34
2023-04-15T00:56:09.044Z,96979.59
2023-04-15T00:57:12.056Z,96981.47
2023-04-15T00:58:15.790Z,96977.31
2023-04-15T00:59:19.152Z,96974.16
2023-04-15T01:00:23.035Z,96977.47
2023-04-15T01:01:27.596Z,96984.47
2023-04-15T01:02:32.951Z,96984.03
2023-04-15T01:03:36.635Z,96988.50
2023-04-15T01:04:39.799Z,96988.19
2023-04-15T01:05:42.679Z,96992.06
2023-04-15T01:06:46.126Z,96990.50
2023-04-15T01:07:49.241Z,96997.37
2023-04-15T01:08:52.169Z,96993.09
2023-04-15T01:09:55.923Z,96991.22
2023-04-15T01:11:04.063Z,96988.91
2023-04-15T01:12:08.785Z,96987.19
2023-04-15T01:13:11.781Z,96988.91
2023-04-15T01:14:14.786Z,96992.06
2023-04-15T01:15:17.677Z,96982.75
2023-04-15T01:16:21.011Z,96984.47
2023-04-15T01:17:25.779Z,96983.03
2023-04-15T01:18:29.698Z,96985.59
2023-04-15T01:19:32.792Z,96988.63
2023-04-15T01:20:36.664Z,96984.72
2023-04-15T01:21:41.220Z,96987.62
2023-04-15T01:22:45.501Z,96991.47
2023-04-15T01:23:49.277Z,96989.75
2023-04-15T01:25:02.497Z,96982.44
2023-04-15T01:26:09.199Z,96981.31
2023-04-15T01:27:12.337Z,96987.19
2023-04-15T01:28:15.378Z,96986.03
2023-04-15T01:29:18.957Z,96984.72
2023-04-15T01:30:22.019Z,96983.88
2023-04-15T01:31:24.838Z,96985.00
2023-04-15T01:32:27.846Z,96995.06
2023-04-15T01:33:30.910Z,96989.75
2023-04-15T01:34:35.734Z,96984.00
2023-04-15T01:35:39.213Z,96996.50
2023-04-15T01:36:42.268Z,96987.31
2023-04-15T01:37:45.677Z,96985.84
2023-04-15T01:38:48.960Z,96987.31
2023-04-15T01:39:52.631Z,96993.06
2023-04-15T01:40:55.736Z,96991.88
2023-04-15T01:41:59.005Z,96995.34
2023-04-15T01:43:02.898Z,96992.47
2023-04-15T01:44:07.434Z,96997.34
2023-04-15T01:45:10.949Z,96996.19
2023-04-15T01:46:14.097Z,97001.47
2023-04-15T01:47:17.926Z,97000.63
2023-04-15T01:48:21.476Z,97000.06
2023-04-15T01:49:24.503Z,96997.75
2023-04-15T01:50:28.601Z,97001.59
2023-04-15T01:51:32.300Z,96999.31
2023-04-15T01:52:35.291Z,97004.34
2023-04-15T01:53:38.369Z,97000.06
2023-04-15T01:54:41.384Z,96997.34
2023-04-15T01:55:44.557Z,97010.09
2023-04-15T01:56:47.841Z,97000.63
2023-04-15T01:57:51.198Z,97002.19
2023-04-15T01:58:54.347Z,97003.31
2023-04-15T01:59:57.362Z,97002.91
2023-04-15T02:01:00.862Z,97005.34
2023-04-15T02:02:04.776Z,97000.28
2023-04-15T02:03:07.971Z,97000.47
2023-04-15T02:04:16.945Z,97001.06
2023-04-15T02:05:20.065Z,97005.94
2023-04-15T02:06:23.085Z,97010.53
2023-04-15T02:07:26.588Z,96999.34
2023-04-15T02:08:30.048Z,97004.91
2023-04-15T02:09:33.350Z,97010.50
2023-04-15T02:10:36.357Z,97008.22
2023-04-15T02:11:39.489Z,97005.34
2023-04-15T02:12:42.843Z,97000.47
2023-04-15T02:13:45.812Z,97005.75
2023-04-15T02:14:48.879Z,97002.88
2023-04-15T02:15:52.966Z,97000.69
2023-04-15T02:16:56.888Z,97002.84
2023-04-15T02:18:01.392Z,97002.41
2023-04-15T02:19:04.735Z,96998.97
2023-04-15T02:20:09.128Z,97000.28
2023-04-15T02:21:12.087Z,97003.44
2023-04-15T02:22:19.028Z,97002.59
2023-04-15T02:23:22.180Z,97006.75
2023-04-15T02:24:25.171Z,97000.84
2023-04-15T02:25:28.186Z,97006.88
2023-04-15T02:26:33.349Z,97002.31
2023-04-15T02:27:37.169Z,97003.03
2023-04-15T02:28:40.372Z,97006.06
2023-04-15T02:29:44.533Z,97014.09
2023-04-15T02:30:51.463Z,97001.59
2023-04-15T02:31:54.627Z,97009.62
2023-04-15T02:32:57.531Z,97004.84
2023-04-15T02:34:00.731Z,97006.03
2023-04-15T02:35:09.144Z,97005.47
2023-04-15T02:36:12.727Z,97005.75
2023-04-15T02:37:16.403Z,97010.06
2023-04-15T02:38:19.385Z,97003.91
2023-04-15T02:39:22.387Z,97005.03
2023-04-15T02:40:25.452Z,96998.16
2023-04-15T02:41:30.320Z,97007.88
2023-04-15T02:42:33.374Z,96994.12
2023-04-15T02:43:36.759Z,97005.22
2023-04-15T02:44:39.978Z,96999.47
2023-04-15T02:45:43.892Z,97004.34
2023-04-15T02:46:51.300Z,97009.25
2023-04-15T02:47:54.816Z,97003.03
2023-04-15T02:49:00.354Z,97003.91
2023-04-15T02:50:04.557Z,97007.34
2023-04-15T02:51:20.132Z,97004.91
2023-04-15T02:52:23.009Z,96998.75
2023-04-15T02:53:27.233Z,97004.81
2023-04-15T02:54:30.220Z,97008.69
2023-04-15T02:55:33.395Z,97004.91
2023-04-15T02:56:36.327Z,97006.47
2023-04-15T02:57:41.045Z,97005.50
2023-04-15T02:58:50.940Z,97006.78
2023-04-15T02:59:54.098Z,97007.50
2023-04-15T03:00:57.036Z,97008.66
2023-04-15T03:02:02.699Z,97006.78
2023-04-15T03:03:07.007Z,97006.22
2023-04-15T03:04:10.429Z,97013.81
2023-04-15T03:05:15.143Z,97004.94
2023-04-15T03:06:18.196Z,97012.69
2023-04-15T03:07:21.401Z,97008.94
2023-04-15T03:08:24.467Z,97005.53
2023-04-15T03:09:27.681Z,97010.09
2023-04-15T03:10:30.727Z,96999.63
2023-04-15T03:11:36.025Z,97006.66
2023-04-15T03:12:39.766Z,97003.34
2023-04-15T03:13:43.559Z,97003.78
2023-04-15T03:14:46.393Z,97002.78
2023-04-15T03:15:49.368Z,97006.25
2023-04-15T03:16:52.538Z,97001.78
2023-04-15T03:17:56.738Z,96995.91
2023-04-15T03:18:59.873Z,97007.94
2023-04-15T03:20:05.587Z,97006.94
2023-04-15T03:21:08.451Z,97002.34
2023-04-15T03:22:11.775Z,97009.09
2023-04-15T03:23:14.843Z,97002.06
2023-04-15T03:24:18.237Z,97005.81
2023-04-15T03:25:21.882Z,97006.22
2023-04-15T03:26:27.374Z,96992.47
2023-04-15T03:27:36.238Z,97002.91
2023-04-15T03:28:39.655Z,96998.22
2023-04-15T03:29:42.631Z,97006.53
2023-04-15T03:30:45.927Z,96997.50
2023-04-15T03:31:48.994Z,97002.50
2023-04-15T03:32:52.033Z,96994.72
2023-04-15T03:33:55.092Z,97011.13
2023-04-15T03:34:58.014Z,97002.53
2023-04-15T03:36:01.198Z,97005.50
2023-04-15T03:37:04.182Z,97004.50
2023-04-15T03:38:07.364Z,97006.81
2023-04-15T03:39:10.547Z,96993.91
2023-04-15T03:40:13.644Z,97007.94
2023-04-15T03:41:16.533Z,96996.75
2023-04-15T03:42:19.549Z,97003.06
2023-04-15T03:43:22.709Z,97010.25
2023-04-15T03:44:27.171Z,97013.44
2023-04-15T03:45:30.246Z,97003.78
2023-04-15T03:46:33.571Z,97002.66
2023-04-15T03:47:36.891Z,96995.50
2023-04-15T03:48:39.887Z,96991.44
2023-04-15T03:49:42.740Z,96997.03
2023-04-15T03:50:46.376Z,97006.53
2023-04-15T03:51:49.523Z,97000.06
2023-04-15T03:52:52.436Z,96992.59
2023-04-15T03:53:55.388Z,96989.28
2023-04-15T03:54:58.366Z,97000.47
2023-04-15T03:56:01.951Z,96990.59
2023-04-15T03:57:04.944Z,96995.34
2023-04-15T03:58:08.053Z,96990.31
2023-04-15T03:59:11.715Z,96986.28
2023-04-15T04:00:14.793Z,96988.72
2023-04-15T04:01:17.712Z,96988.28
2023-04-15T04:02:20.726Z,96992.16
2023-04-15T04:03:24.095Z,96987.59
2023-04-15T04:04:27.292Z,96990.72
2023-04-15T04:05:31.047Z,96989.03
2023-04-15T04:06:34.212Z,97001.78
2023-04-15T04:07:37.270Z,96993.19
2023-04-15T04:08:40.251Z,96989.31
2023-04-15T04:09:43.232Z,96993.19
2023-04-15T04:10:46.276Z,96986.59
2023-04-15T04:11:49.112Z,96988.31
2023-04-15T04:12:52.257Z,96988.91
2023-04-15T04:13:55.292Z,96989.87
2023-04-15T04:14:58.302Z,96983.56
2023-04-15T04:16:02.148Z,96985.16
2023-04-15T04:17:05.400Z,96983.16
2023-04-15T04:18:08.543Z,96988.31
2023-04-15T04:19:11.586Z,96992.88
2023-04-15T04:20:14.466Z,96987.56
2023-04-15T04:21:17.577Z,96987.53
2023-04-15T04:22:24.381Z,96985.97
2023-04-15T04:23:27.336Z,96987.44
2023-04-15T04:24:30.301Z,96993.59
2023-04-15T04:25:33.397Z,96997.47
2023-04-15T04:26:36.741Z,97003.50
2023-04-15T04:27:40.098Z,96999.06
2023-04-15T04:28:43.499Z,96989.16
2023-04-15T04:29:48.125Z,96993.31
2023-04-15T04:30:51.376Z,96990.31
2023-04-15T04:31:54.444Z,96988.28
2023-04-15T04:32:57.805Z,96991.91
2023-04-15T04:34:01.311Z,96995.75
2023-04-15T04:35:05.153Z,96997.19
2023-04-15T04:36:08.363Z,96996.75
2023-04-15T04:37:11.705Z,97001.62
2023-04-15T04:38:14.656Z,97004.34
2023-04-15T04:39:17.750Z,97000.06
2023-04-15T04:40:20.973Z,96997.63
2023-04-15T04:41:23.982Z,97002.09
2023-04-15T04:42:27.299Z,97005.94
2023-04-15T04:43:30.228Z,96996.16
2023-04-15T04:44:33.460Z,97005.50
2023-04-15T04:45:36.599Z,97004.50
2023-04-15T04:46:39.570Z,97004.91
2023-04-15T04:47:42.791Z,97005.47
2023-04-15T04:48:47.159Z,96998.84
2023-04-15T04:49:50.250Z,97002.47
2023-04-15T04:50:53.556Z,97000.19
2023-04-15T04:51:57.797Z,97001.72
2023-04-15T04:53:01.764Z,97011.16
2023-04-15T04:54:04.733Z,97003.84
2023-04-15T04:55:08.878Z,97003.41
2023-04-15T04:56:11.867Z,97005.03
2023-04-15T04:57:14.769Z,97001.12
2023-04-15T04:58:17.807Z,97005.03
2023-04-15T04:59:20.845Z,97006.03
2023-04-15T05:00:23.842Z,97004.13
2023-04-15T05:01:27.811Z,97005.63
2023-04-15T05:02:31.318Z,97012.34
2023-04-15T05:03:34.647Z,97002.59
2023-04-15T05:04:37.666Z,97008.91
2023-04-15T05:05:41.368Z,97014.34
2023-04-15T05:06:44.261Z,97010.75
2023-04-15T05:07:47.584Z,97006.03
2023-04-15T05:08:50.710Z,97009.31
2023-04-15T05:09:54.026Z,97015.34
2023-04-15T05:10:57.004Z,97003.53
2023-04-15T05:12:00.152Z,97015.78
2023-04-15T05:13:03.160Z,97016.19
2023-04-15T05:14:06.324Z,97012.66
2023-04-15T05:15:09.673Z,97007.94
2023-04-15T05:16:12.638Z,97009.25
2023-04-15T05:17:15.557Z,97017.56
2023-04-15T05:18:18.528Z,97012.56
2023-04-15T05:19:21.624Z,97014.03
2023-04-15T05:20:24.821Z,97012.72
2023-04-15T05:21:28.011Z,97012.87
2023-04-15T05:22:31.268Z,97010.84
2023-04-15T05:23:34.392Z,97015.56
2023-04-15T05:24:37.545Z,97013.41
2023-04-15T05:25:40.834Z,97022.69
2023-04-15T05:26:43.995Z,97014.63
2023-04-15T05:27:47.032Z,97017.22
2023-04-15T05:28:50.076Z,97013.19
2023-04-15T05:29:53.078Z,97001.56
2023-04-15T05:30:56.548Z,97014.75
2023-04-15T05:31:59.614Z,97017.91
2023-04-15T05:33:02.755Z,97011.41
2023-04-15T05:34:05.773Z,97009.72
2023-04-15T05:35:08.883Z,97017.94
2023-04-15T05:36:12.373Z,97014.94
2023-04-15T05:37:15.846Z,97022.56
2023-04-15T05:38:19.023Z,97019.22
2023-04-15T05:39:22.271Z,97017.50
2023-04-15T05:40:25.350Z,97026.28
2023-04-15T05:41:28.206Z,97025.53
2023-04-15T05:42:31.199Z,97028.13
2023-04-15T05:43:34.096Z,97025.41
2023-04-15T05:44:37.119Z,97024.81
2023-04-15T05:45:40.137Z,97031.66
2023-04-15T05:46:43.670Z,97032.56
2023-04-15T05:47:47.171Z,97037.59
2023-04-15T05:48:50.520Z,97031.09
2023-04-15T05:49:53.606Z,97040.12
2023-04-15T05:50:56.857Z,97040.41
2023-04-15T05:51:59.853Z,97036.25
2023-04-15T05:53:02.857Z,97033.41
2023-04-15T05:54:06.076Z,97037.91
2023-04-15T05:55:09.725Z,97043.91
2023-04-15T05:56:12.919Z,97032.16
2023-04-15T05:57:15.922Z,97041.78
2023-04-15T05:58:19.046Z,97033.88
2023-04-15T05:59:22.145Z,97041.25
2023-04-15T06:00:25.386Z,97038.38
2023-04-15T06:01:28.464Z,97039.41
2023-04-15T06:02:31.835Z,97039.13
2023-04-15T06:03:35.072Z,97043.44
2023-04-15T06:04:38.224Z,97042.84
2023-04-15T06:05:41.437Z,97053.34
2023-04-15T06:06:45.081Z,97046.97
2023-04-15T06:07:48.713Z,97050.09
2023-04-15T06:08:51.835Z,97052.94
2023-04-15T06:09:55.012Z,97055.50
2023-04-15T06:10:59.729Z,97054.91
2023-04-15T06:12:03.308Z,97059.94
2023-04-15T06:13:07.245Z,97057.34
2023-04-15T06:14:10.124Z,97057.47
2023-04-15T06:15:13.168Z,97066.91
2023-04-15T06:16:16.712Z,97061.13
2023-04-15T06:17:20.083Z,97060.78
2023-04-15T06:18:23.040Z,97062.75
2023-04-15T06:19:26.482Z,97062.81
2023-04-15T06:20:29.836Z,97069.81
2023-04-15T06:21:33.240Z,97062.59
2023-04-15T06:22:38.218Z,97068.06
2023-04-15T06:23:44.051Z,97061.44
2023-04-15T06:24:47.173Z,97060.84
2023-04-15T06:25:50.078Z,97066.31
2023-04-15T06:26:53.345Z,97069.31
2023-04-15T06:27:56.467Z,97065.66
2023-04-15T06:28:59.730Z,97069.88
2023-04-15T06:30:03.023Z,97070.03
2023-04-15T06:31:06.931Z,97071.38
2023-04-15T06:32:10.252Z,97070.41
2023-04-15T06:33:13.714Z,97068.25
2023-04-15T06:34:16.685Z,97072.16
2023-04-15T06:35:19.760Z,97072.16
2023-04-15T06:36:22.722Z,97075.00
2023-04-15T06:37:25.759Z,97077.41
2023-04-15T06:38:28.930Z,97072.81
2023-04-15T06:39:32.545Z,97074.37
2023-04-15T06:40:35.748Z,97077.41
2023-04-15T06:41:38.750Z,97074.81
2023-04-15T06:42:42.242Z,97081.13
2023-04-15T06:43:45.382Z,97082.69
2023-04-15T06:44:48.313Z,97077.84
2023-04-15T06:45:51.252Z,97077.03
2023-04-15T06:46:54.190Z,97070.28
2023-04-15T06:47:57.600Z,97070.50
2023-04-15T06:49:01.113Z,97069.81
2023-04-15T06:50:04.788Z,97073.25
2023-04-15T06:51:07.965Z,97073.75
2023-04-15T06:52:11.600Z,97082.94
2023-04-15T06:53:15.302Z,97082.44
2023-04-15T06:54:18.462Z,97079.00
2023-04-15T06:55:21.781Z,97077.47
2023-04-15T06:56:24.762Z,97083.66
2023-04-15T06:57:28.991Z,97081.13
2023-04-15T06:58:31.993Z,97075.00
2023-04-15T06:59:35.777Z,97078.91
2023-04-15T07:00:39.494Z,97076.31
2023-04-15T07:01:42.509Z,97073.00
2023-04-15T07:02:45.728Z,97075.50
2023-04-15T07:03:48.922Z,97089.66
2023-04-15T07:04:52.960Z,97077.75
2023-04-15T07:05:55.921Z,97080.13
2023-04-15T07:06:58.872Z,97082.03
2023-04-15T07:08:02.202Z,97084.66
2023-04-15T07:09:05.754Z,97082.16
2023-04-15T07:10:09.472Z,97091.34
2023-04-15T07:11:12.659Z,97089.31
2023-04-15T07:12:15.791Z,97092.28
2023-04-15T07:13:18.934Z,97085.25
2023-04-15T07:14:22.380Z,97092.03
2023-04-15T07:15:25.382Z,97086.81
2023-04-15T07:16:29.888Z,97086.72
2023-04-15T07:17:33.632Z,97093.03
2023-04-15T07:18:36.965Z,97092.06
2023-04-15T07:19:40.338Z,97084.19
2023-04-15T07:20:43.897Z,97086.38
2023-04-15T07:21:47.878Z,97093.16
2023-04-15T07:22:51.351Z,97097.19
2023-04-15T07:23:54.574Z,97090.53
2023-04-15T07:24:57.854Z,97087.09
2023-04-15T07:26:01.740Z,97090.78
2023-04-15T07:27:04.880Z,97090.41
2023-04-15T07:28:07.892Z,97094.22
2023-04-15T07:29:11.102Z,97094.34
2023-04-15T07:30:14.725Z,97099.94
2023-04-15T07:31:18.056Z,97099.22
2023-04-15T07:32:21.166Z,97090.88
2023-04-15T07:33:24.574Z,97093.75
2023-04-15T07:34:30.736Z,97094.56
2023-04-15T07:35:34.613Z,97093.56
2023-04-15T07:36:37.751Z,97099.63
2023-04-15T07:37:40.704Z,97092.91
2023-04-15T07:38:43.624Z,97097.03
2023-04-15T07:40:08.006Z,97094.75
2023-04-15T07:41:14.124Z,97103.69
2023-04-15T07:42:17.475Z,97097.16
2023-04-15T07:43:21.938Z,97094.06
2023-04-15T07:44:27.020Z,97097.78
2023-04-15T07:45:30.077Z,97100.31
2023-04-15T07:46:33.490Z,97096.72
2023-04-15T07:47:36.966Z,97105.19
2023-04-15T07:48:39.953Z,97100.88
2023-04-15T07:49:43.759Z,97102.41
2023-04-15T07:50:46.981Z,97103.84
2023-04-15T07:51:50.318Z,97102.88
2023-04-15T07:52:53.373Z,97101.56
2023-04-15T07:53:56.644Z,97107.63
2023-04-15T07:54:59.660Z,97106.91
2023-04-15T07:56:02.605Z,97103.97
2023-04-15T07:57:05.613Z,97107.03
2023-04-15T07:58:08.696Z,97104.53
2023-04-15T07:59:11.873Z,97100.88
2023-04-15T08:00:16.576Z,97107.78
2023-04-15T08:01:19.609Z,97107.78
2023-04-15T08:02:23.188Z,97110.41
2023-04-15T08:03:26.493Z,97105.53
2023-04-15T08:04:29.827Z,97108.75
2023-04-15T08:05:33.457Z,97112.22
2023-04-15T08:06:36.974Z,97115.06
2023-04-15T08:07:40.297Z,97111.97
2023-04-15T08:08:43.422Z,97112.56
2023-04-15T08:09:47.236Z,97113.72
2023-04-15T08:10:52.371Z,97111.47
2023-04-15T08:11:56.828Z,97109.12
2023-04-15T08:12:59.909Z,97115.06
2023-04-15T08:14:05.199Z,97116.25
2023-04-15T08:15:08.642Z,97103.72
2023-04-15T08:16:23.774Z,97112.28
2023-04-15T08:17:27.270Z,97118.59
2023-04-15T08:18:30.603Z,97122.06
2023-04-15T08:19:33.661Z,97117.16
2023-04-15T08:20:37.332Z,97119.09
2023-04-15T08:21:41.323Z,97122.66
2023-04-15T08:22:44.269Z,97127.44
2023-04-15T08:23:49.760Z,97126.72
2023-04-15T08:24:52.784Z,97127.19
2023-04-15T08:25:55.800Z,97127.37
2023-04-15T08:27:00.174Z,97127.84
2023-04-15T08:28:07.685Z,97130.97
2023-04-15T08:29:10.745Z,97133.97
2023-04-15T08:30:14.296Z,97136.47
2023-04-15T08:31:18.678Z,97136.84
2023-04-15T08:32:21.746Z,97137.09
2023-04-15T08:33:24.675Z,97137.09
2023-04-15T08:34:28.064Z,97127.56
2023-04-15T08:35:31.942Z,97134.22
2023-04-15T08:36:35.291Z,97134.34
2023-04-15T08:37:38.452Z,97138.88
2023-04-15T08:38:42.104Z,97136.72
2023-04-15T08:39:46.434Z,97131.22
2023-04-15T08:40:49.860Z,97132.50
2023-04-15T08:42:02.068Z,97140.00
2023-04-15T08:43:08.428Z,97136.13
2023-04-15T08:44:11.706Z,97131.69
2023-04-15T08:45:15.349Z,97132.12
2023-04-15T08:46:18.785Z,97132.69
2023-04-15T08:47:24.522Z,97136.38
2023-04-15T08:48:32.884Z,97141.38
2023-04-15T08:49:41.659Z,97145.41
2023-04-15T08:50:45.686Z,97140.34
2023-04-15T08:51:49.926Z,97135.28
2023-04-15T08:52:56.192Z,97133.38
2023-04-15T08:54:00.075Z,97137.03
2023-04-15T08:55:03.925Z,97140.63
2023-04-15T08:56:10.432Z,97131.28
2023-04-15T08:57:14.508Z,97138.41
2023-04-15T08:58:19.932Z,97142.47
2023-04-15T08:59:22.989Z,97145.00
2023-04-15T09:00:27.315Z,97140.50
2023-04-15T09:01:30.468Z,97145.50
2023-04-15T09:02:33.940Z,97143.84
2023-04-15T09:03:37.819Z,97144.81
2023-04-15T09:04:40.945Z,97147.16
2023-04-15T09:05:44.735Z,97146.00
2023-04-15T09:06:47.840Z,97146.38
2023-04-15T09:07:53.789Z,97142.09
2023-04-15T09:08:57.902Z,97144.00
2023-04-15T09:10:01.933Z,97142.19
2023-04-15T09:11:05.190Z,97143.28
2023-04-15T09:12:09.180Z,97142.59
2023-04-15T09:13:12.648Z,97139.56
2023-04-15T09:14:15.540Z,97143.03
2023-04-15T09:15:19.187Z,97143.94
2023-04-15T09:16:22.325Z,97140.16
2023-04-15T09:17:26.850Z,97146.50
2023-04-15T09:18:35.858Z,97144.06
2023-04-15T09:19:38.840Z,97149.56
2023-04-15T09:20:43.004Z,97150.75
2023-04-15T09:21:48.216Z,97152.91
2023-04-15T09:22:52.652Z,97150.37
2023-04-15T09:24:01.138Z,97151.81
2023-04-15T09:25:04.999Z,97149.03
2023-04-15T09:26:08.636Z,97145.16
2023-04-15T09:27:11.865Z,97146.91
2023-04-15T09:28:15.081Z,97148.16
2023-04-15T09:29:18.928Z,97141.88
2023-04-15T09:30:22.078Z,97143.69
2023-04-15T09:31:31.602Z,97143.81
2023-04-15T09:32:35.126Z,97146.47
2023-04-15T09:33:59.164Z,97138.94
2023-04-15T09:35:12.842Z,97152.28
2023-04-15T09:36:15.875Z,97149.31
2023-04-15T09:37:31.523Z,97149.09
2023-04-15T09:38:36.400Z,97149.44
2023-04-15T09:39:52.425Z,97141.47
2023-04-15T09:40:55.751Z,97154.69
2023-04-15T09:42:07.754Z,97148.25
2023-04-15T09:43:14.659Z,97155.25
2023-04-15T09:44:27.684Z,97149.59
2023-04-15T09:45:31.467Z,97151.75
2023-04-15T09:46:44.563Z,97155.94
2023-04-15T09:47:48.056Z,97154.84
2023-04-15T09:49:09.012Z,97159.63
2023-04-15T09:50:12.885Z,97153.91
2023-04-15T09:51:16.426Z,97158.16
2023-04-15T09:52:19.374Z,97154.53
2023-04-15T09:53:23.649Z,97157.00
2023-04-15T09:54:34.817Z,97158.53
2023-04-15T09:55:37.948Z,97158.22
2023-04-15T09:56:43.700Z,97157.13
2023-04-15T09:57:47.680Z,97154.81
2023-04-15T09:58:57.609Z,97151.44
2023-04-15T10:00:00.747Z,97155.31
2023-04-15T10:01:05.397Z,97153.19
2023-04-15T10:02:08.734Z,97160.00
2023-04-15T10:03:12.877Z,97165.66
2023-04-15T10:04:16.744Z,97165.22
2023-04-15T10:05:20.113Z,97164.91
2023-04-15T10:06:24.320Z,97168.97
2023-04-15T10:07:27.753Z,97167.78
2023-04-15T10:08:33.345Z,97174.38
2023-04-15T10:09:39.872Z,97166.56
2023-04-15T10:10:42.989Z,97167.16
2023-04-15T10:11:49.855Z,97173.06
2023-04-15T10:12:54.919Z,97167.56
2023-04-15T10:13:58.819Z,97168.88
2023-04-15T10:15:06.218Z,97167.66
2023-04-15T10:16:17.071Z,97169.19
2023-04-15T10:17:22.905Z,97166.78
2023-04-15T10:18:28.259Z,97171.38
2023-04-15T10:19:33.843Z,97168.94
2023-04-15T10:20:39.263Z,97162.53
2023-04-15T10:21:42.754Z,97166.13
2023-04-15T10:22:47.191Z,97170.59
2023-04-15T10:23:51.041Z,97169.97
2023-04-15T10:24:54.907Z,97168.16
2023-04-15T10:25:59.262Z,97172.72
2023-04-15T10:27:05.661Z,97173.44
2023-04-15T10:28:09.891Z,97177.72
2023-04-15T10:29:14.386Z,97174.63
2023-04-15T10:30:17.952Z,97177.06
2023-04-15T10:31:22.037Z,97180.94
2023-04-15T10:32:26.795Z,97172.97
2023-04-15T10:33:30.932Z,97176.94
2023-04-15T10:34:34.419Z,97177.31
2023-04-15T10:35:38.120Z,97179.88
2023-04-15T10:36:41.250Z,97179.44
2023-04-15T10:37:44.435Z,97174.84
2023-04-15T10:38:47.708Z,97178.44
2023-04-15T10:39:51.420Z,97174.34
2023-04-15T10:40:54.489Z,97182.69
2023-04-15T10:42:17.756Z,97184.88
2023-04-15T10:43:28.774Z,97187.72
2023-04-15T10:44:31.960Z,97184.53
2023-04-15T10:45:37.181Z,97187.66
2023-04-15T10:46:45.422Z,97187.03
2023-04-15T10:47:55.420Z,97188.13
2023-04-15T10:48:58.679Z,97183.84
2023-04-15T10:50:02.798Z,97198.00
2023-04-15T10:51:06.004Z,97189.56
2023-04-15T10:52:09.182Z,97188.59
2023-04-15T10:53:12.429Z,97188.59
2023-04-15T10:54:17.892Z,97185.12
2023-04-15T10:55:32.615Z,97189.91
2023-04-15T10:56:35.689Z,97181.78
2023-04-15T10:57:40.666Z,97190.13
2023-04-15T10:58:44.427Z,97188.59
2023-04-15T10:59:59.545Z,97183.72
2023-04-15T11:01:04.791Z,97191.56
2023-04-15T11:02:08.447Z,97193.56
2023-04-15T11:03:12.489Z,97190.13
2023-04-15T11:04:15.717Z,97191.56
2023-04-15T11:05:21.014Z,97182.97
2023-04-15T11:06:45.420Z,97189.91
2023-04-15T11:07:51.206Z,97195.16
2023-04-15T11:09:06.313Z,97193.63
2023-04-15T11:10:18.735Z,97192.31
2023-04-15T11:11:21.907Z,97195.28
2023-04-15T11:12:36.006Z,97196.81
2023-04-15T11:13:48.819Z,97190.63
2023-04-15T11:14:51.848Z,97191.09
2023-04-15T11:15:58.675Z,97189.34
2023-04-15T11:17:01.942Z,97197.06
2023-04-15T11:18:21.255Z,97194.44
2023-04-15T11:19:24.205Z,97189.41
2023-04-15T11:20:27.548Z,97194.03
2023-04-15T11:21:30.954Z,97194.28
2023-04-15T11:22:34.313Z,97201.66
2023-04-15T11:23:47.060Z,97187.94
2023-04-15T11:24:50.866Z,97190.28
2023-04-15T11:25:56.696Z,97187.78
2023-04-15T11:27:00.158Z,97192.19
2023-04-15T11:28:03.996Z,97192.66
2023-04-15T11:29:07.212Z,97195.72
2023-04-15T11:30:24.493Z,97201.59
2023-04-15T11:31:28.924Z,97197.66
2023-04-15T11:32:32.353Z,97189.16
2023-04-15T11:33:35.446Z,97191.47
2023-04-15T11:34:38.558Z,97198.59
2023-04-15T11:35:42.619Z,97198.00
2023-04-15T11:36:45.706Z,97189.47
2023-04-15T11:37:52.837Z,97189.59
2023-04-15T11:38:59.358Z,97189.22
2023-04-15T11:40:03.888Z,97194.94
2023-04-15T11:41:07.087Z,97191.66
2023-04-15T11:42:22.567Z,97193.47
2023-04-15T11:43:25.616Z,97193.38
2023-04-15T11:44:28.507Z,97192.19
2023-04-15T11:45:31.859Z,97196.91
2023-04-15T11:46:34.994Z,97192.50
2023-04-15T11:47:39.308Z,97196.56
2023-04-15T11:48:45.108Z,97195.84
2023-04-15T11:49:50.805Z,97193.00
2023-04-15T11:50:59.472Z,97192.97
2023-04-15T11:52:02.649Z,97183.41
2023-04-15T11:53:08.567Z,97195.47
2023-04-15T11:54:19.737Z,97197.66
2023-04-15T11:55:24.438Z,97200.56
2023-04-15T11:56:27.871Z,97192.84
2023-04-15T11:57:36.011Z,97199.75
2023-04-15T11:58:39.888Z,97194.84
2023-04-15T11:59:45.859Z,97202.97
2023-04-15T12:00:59.076Z,97201.41
2023-04-15T12:02:13.715Z,97202.97
2023-04-15T12:03:22.996Z,97198.09
2023-04-15T12:04:26.555Z,97204.75
2023-04-15T12:05:29.617Z,97197.22
2023-04-15T12:06:39.144Z,97205.25
2023-04-15T12:08:01.364Z,97202.94
2023-04-15T12:09:14.225Z,97204.59
2023-04-15T12:10:18.180Z,97209.31
2023-04-15T12:11:31.529Z,97211.44
2023-04-15T12:12:34.647Z,97208.69
2023-04-15T12:13:37.517Z,97209.91
2023-04-15T12:14:40.675Z,97207.16
2023-04-15T12:15:44.020Z,97210.97
2023-04-15T12:16:54.153Z,97214.16
2023-04-15T12:17:57.287Z,97212.53
2023-04-15T12:19:01.053Z,97209.72
2023-04-15T12:20:04.447Z,97210.97
2023-04-15T12:21:11.330Z,97215.00
2023-04-15T12:22:16.276Z,97208.41
2023-04-15T12:23:22.383Z,97204.22
2023-04-15T12:24:25.214Z,97209.72
2023-04-15T12:25:40.177Z,97214.41
2023-04-15T12:26:49.110Z,97208.47
2023-04-15T12:27:53.705Z,97206.13
2023-04-15T12:29:01.826Z,97202.81
2023-04-15T12:30:06.368Z,97208.44
2023-04-15T12:31:11.372Z,97212.88
2023-04-15T12:32:16.897Z,97214.00
2023-04-15T12:33:20.014Z,97203.47
2023-04-15T12:34:36.743Z,97210.72
2023-04-15T12:35:39.709Z,97213.41
2023-04-15T12:36:43.800Z,97222.00